• Join FlightAware (Why Join?)
  • Login
  • US Flag 
10:07PM EDT


 

Airport Tracker/Info


-or-


 

Live Flight TrackerFlight Track Log ✈ JBU1374 ✈ 27-Aug-2013 ✈ KCHS - KJFK

Flight Track Log - Related Links

Times and Time Zones

All times are in EDT time to prevent confusion due to time zone crossing. See the JBU1374 flight status page for this flight to view local times or setup timezone preferences in your user account.

Time Position Orientation Groundspeed Altitude Reporting Facility
EDT Latitude Longitude Course Direction KTS MPH feet Rate Location/Type
05:35PM 32.8583 -80.0167 31° Northeast 152 175 2,100  Level Jacksonville Center
05:36PM 32.8858 -79.9489 64° Northeast 165 190 4,200 2,340 Climbing Jacksonville Center
05:37PM 33.0122 -79.6922 59° Northeast  Level FlightAware Approximate
05:37PM 32.9133 -79.8786 65° Northeast 200 230 6,800  Level Jacksonville Center
05:38PM 33.0667 -79.5832 54° Northeast  Level FlightAware Approximate
05:38PM 32.9658 -79.7978 52° Northeast 258 297 10,000  Level Jacksonville Center
05:39PM 33.1287 -79.4800 54° Northeast  Level FlightAware Approximate
05:39PM 33.0158 -79.7119 55° Northeast 289 333 11,400  Level Jacksonville Center
05:40PM 33.1924 -79.3781 51° Northeast  Level FlightAware Approximate
05:40PM 33.0678 -79.6183 56° Northeast 313 360 13,900  Level Jacksonville Center
05:41PM 33.2608 -79.3233 31° Northeast  Level FlightAware Approximate
05:41PM 33.1233 -79.5169 57° Northeast 343 395 16,300  Level Jacksonville Center
05:42PM 33.1792 -79.4131 57° Northeast 358 412 17,900 1,800 Climbing Jacksonville Center
05:43PM 33.2644 -79.3328 38° Northeast 371 427 19,900 1,860 Climbing Jacksonville Center
05:44PM 33.3586 -79.2694 29° Northeast 371 427 21,700 1,500 Climbing Jacksonville Center
05:45PM 33.4592 -79.2081 27° Northeast 383 441 23,000 600 Climbing Jacksonville Center
05:46PM 33.5553 -79.1417 30° Northeast 395 455 23,000 480 Level Jacksonville Center
05:47PM 33.6456 -79.0881 26° Northeast 395 455 24,000 1,200 Climbing Jacksonville Center
05:48PM 33.7458 -79.0211 29° Northeast 400 460 25,500 1,200 Climbing Jacksonville Center
05:49PM 33.8500 -78.9517 29° Northeast 411 473 26,500 1,200 Climbing Jacksonville Center
05:50PM 33.9564 -78.8817 29° Northeast 416 479 27,900 840 Climbing Jacksonville Center
05:52PM 34.1508 -78.7539 29° Northeast 433 498 29,000 360 Climbing Washington Center
05:53PM 34.2719 -78.6781 27° Northeast 438 504 29,000  Level Washington Center
05:54PM 34.3742 -78.5861 37° Northeast 445 512 29,000  Level Washington Center
05:55PM 34.4706 -78.4889 40° Northeast 450 518 29,000  Level Washington Center
05:56PM 34.5711 -78.3867 40° Northeast 456 525 29,000  Level Washington Center
05:57PM 34.6714 -78.2867 39° Northeast 462 532 29,000  Level Washington Center
05:58PM 34.7697 -78.1861 40° Northeast 462 532 29,000  Level Washington Center
05:59PM 34.8531 -78.0925 43° Northeast 462 532 29,000  Level Washington Center
06:00PM 34.9597 -77.9792 41° Northeast 457 526 29,000  Level Washington Center
06:01PM 35.0556 -77.8831 39° Northeast 457 526 29,000  Level Washington Center
06:02PM 35.1511 -77.7842 40° Northeast 457 526 29,000 -300 Level Washington Center
06:03PM 35.2550 -77.6981 34° Northeast 452 520 28,400 -1,020 Descending Washington Center
06:04PM 35.3564 -77.6219 31° Northeast 446 513 27,000 -720 Descending Washington Center
06:05PM 35.4578 -77.5428 32° Northeast 434 499 27,000  Level Washington Center
06:06PM 35.5572 -77.4661 32° Northeast 423 487 27,000  Level Washington Center
06:07PM 35.6564 -77.3892 32° Northeast 423 487 27,000  Level Washington Center
06:08PM 35.7578 -77.3147 31° Northeast 418 481 27,000  Level Washington Center
06:09PM 35.8569 -77.2372 32° Northeast 418 481 27,000  Level Washington Center
06:10PM 35.9539 -77.1597 33° Northeast 418 481 27,000  Level Washington Center
06:11PM 36.0531 -77.0794 33° Northeast 418 481 27,000  Level Washington Center
06:12PM 36.1497 -77.0042 32° Northeast 418 481 27,000  Level Washington Center
06:13PM 36.2444 -76.9311 32° Northeast 413 475 27,000  Level Washington Center
06:14PM 36.3414 -76.8556 32° Northeast 413 475 27,000  Level Washington Center
06:15PM 36.4361 -76.7794 33° Northeast 408 470 27,000  Level Washington Center
06:16PM 36.5328 -76.7061 31° Northeast 408 470 27,000  Level Washington Center
06:17PM 36.6272 -76.6297 33° Northeast 408 470 27,000  Level Washington Center
06:18PM 36.7114 -76.5608 33° Northeast 408 470 27,000  Level Washington Center
06:19PM 36.8078 -76.4817 33° Northeast 408 470 27,000  Level Washington Center
06:20PM 36.9003 -76.4075 33° Northeast 408 470 27,000  Level Washington Center
06:21PM 36.9967 -76.3306 33° Northeast 408 470 27,000  Level Washington Center
06:22PM 37.0908 -76.2558 32° Northeast 401 461 27,000  Level Washington Center
06:23PM 37.1936 -76.1706 33° Northeast 396 456 27,000  Level Washington Center
06:24PM 37.2836 -76.1061 30° Northeast 396 456 27,000  Level Washington Center
06:25PM 37.3756 -76.0308 33° Northeast 402 463 27,000  Level Washington Center
06:26PM 37.4739 -75.9503 33° Northeast 407 468 27,000  Level Washington Center
06:27PM 37.5722 -75.8694 33° Northeast 413 475 27,000  Level Washington Center
06:28PM 37.6725 -75.7861 33° Northeast 419 482 27,000  Level Washington Center
06:29PM 37.7706 -75.7075 32° Northeast 424 488 27,000  Level Washington Center
06:30PM 37.8686 -75.6233 34° Northeast 419 482 27,000  Level Washington Center
06:31PM 37.9708 -75.5417 32° Northeast 419 482 27,000  Level Washington Center
06:32PM 38.0708 -75.4600 33° Northeast 419 482 27,000  Level Washington Center
06:33PM 38.1772 -75.3911 27° Northeast 424 488 27,000  Level Washington Center
06:34PM 38.2833 -75.3247 26° Northeast 419 482 27,000  Level Washington Center
06:35PM 38.3833 -75.2528 29° Northeast 409 471 27,000  Level Washington Center
06:36PM 38.4914 -75.1886 25° Northeast 409 471 27,000  Level Washington Center
06:37PM 38.5975 -75.1242 25° Northeast 414 476 27,000  Level Washington Center
06:38PM 38.7014 -75.0569 27° Northeast 414 476 27,000  Level Washington Center
06:39PM 38.7116 -75.0312 27° Northeast  Level FlightAware Approximate
06:39PM 38.8053 -74.9869 28° Northeast 409 471 27,000  Level Washington Center
06:40PM 38.9092 -74.9247 25° Northeast 409 471 27,000  Level Washington Center
06:41PM 39.0131 -74.8517 29° Northeast 409 471 27,000  Level Washington Center
06:42PM 39.1169 -74.7783 29° Northeast 409 471 27,000 -240 Level Washington Center
06:44PM 39.3297 -74.5472 40° Northeast 409 471 26,400 -1,020 Descending New York Center
06:45PM 39.4203 -74.4525 39° Northeast 410 472 23,800 -2,580 Descending New York Center
06:46PM 39.5067 -74.3550 41° Northeast 410 472 21,300 -2,400 Descending New York Center
06:47PM 39.5908 -74.2622 40° Northeast 404 465 19,000 -1,200 Descending New York Center
06:48PM 39.6728 -74.1744 39° Northeast 392 451 19,000 -1,200 Level New York Center
06:49PM 39.7544 -74.0814 41° Northeast 387 445 16,700 -2,580 Descending New York Center
06:50PM 39.8275 -74.0036 39° Northeast 382 440 13,900 -2,400 Descending New York Center
06:51PM 39.9064 -73.9425 31° Northeast 354 407 12,000 -1,500 Descending New York Center
06:52PM 39.9831 -73.8836 30° Northeast 303 349 10,900 -540 Descending New York Center
06:53PM 40.0531 -73.8297 31° Northeast 290 334 11,000 -420 Climbing New York Center
06:54PM 40.1150 -73.7808 31° Northeast 290 334 10,100 -1,380 Descending New York Center
06:55PM 40.1906 -73.7597 12° North 251 289 8,300 -1,740 Descending New York Center
06:57PM 40.2500 -73.8667 306° West 271 312 6,400 -1,680 Descending New York TRACON
06:57PM 40.2758 -73.9186 303° West 241 277 5,000 -1,740 Descending New York Center
06:58PM 40.3503 -73.9411 347° North 245 282 3,300 -1,320 Descending New York Center
06:59PM 40.4108 -73.9383 North 245 282 2,400 -600 Descending New York Center
07:00PM 40.4578 -73.8997 32° Northeast 193 222 2,200 -180 Descending New York Center
07:01PM 40.4878 -73.8683 39° Northeast 165 190 2,100 -120 Descending New York Center
07:02PM 40.5300 -73.8483 20° North 150 173 2,000 -480 Descending New York Center
07:03PM 40.5661 -73.8172 33° Northeast 150 173 1,200 -720 Descending New York Center
07:04PM 40.5958 -73.7939 31° Northeast 140 161 600 -420 Descending New York Center
07:05PM 40.6300 -73.7681 30° Northeast 140 161 400 -240 Descending New York Center
07:07PM 40.6333 -73.7667 26° Northeast  Level FlightAware Approximate